createdAt,value
2023-10-09T00:02:15.285Z,0.70
2023-10-09T00:04:44.046Z,1.40
2023-10-09T00:07:12.560Z,0.52
2023-10-09T00:09:53.542Z,0.50
2023-10-09T00:12:24.999Z,0.95
2023-10-09T00:14:56.924Z,0.77
2023-10-09T00:17:24.587Z,0.15
2023-10-09T00:20:00.728Z,0.93
2023-10-09T00:22:31.519Z,0.73
2023-10-09T00:25:11.833Z,0.73
2023-10-09T00:27:44.022Z,1.00
2023-10-09T00:30:19.433Z,0.77
2023-10-09T00:33:14.639Z,0.35
2023-10-09T00:35:55.736Z,1.23
2023-10-09T00:38:28.027Z,1.25
2023-10-09T00:41:10.311Z,0.50
2023-10-09T00:43:44.022Z,0.93
2023-10-09T00:46:25.098Z,0.50
2023-10-09T00:49:05.759Z,1.13
2023-10-09T00:51:36.780Z,0.30
2023-10-09T00:54:08.632Z,0.73
2023-10-09T00:56:42.840Z,0.10
2023-10-09T00:59:11.193Z,0.98
2023-10-09T01:01:42.261Z,0.68
2023-10-09T01:04:19.298Z,0.90
2023-10-09T01:07:10.729Z,1.05
2023-10-09T01:09:39.367Z,0.30
2023-10-09T01:12:06.687Z,0.60
2023-10-09T01:14:37.461Z,0.73
2023-10-09T01:17:19.936Z,0.47
2023-10-09T01:19:49.094Z,2.22
2023-10-09T01:22:17.074Z,0.75
2023-10-09T01:24:44.453Z,1.65
2023-10-09T01:27:21.026Z,1.35
2023-10-09T01:29:51.805Z,0.70
2023-10-09T01:32:24.305Z,0.95
2023-10-09T01:34:51.411Z,1.67
2023-10-09T01:37:23.964Z,0.82
2023-10-09T01:39:52.603Z,1.02
2023-10-09T01:42:29.795Z,1.42
2023-10-09T01:44:59.571Z,0.80
2023-10-09T01:47:33.495Z,1.48
2023-10-09T01:50:00.094Z,1.10
2023-10-09T01:52:26.581Z,0.73
2023-10-09T01:54:55.398Z,0.85
2023-10-09T01:57:25.228Z,1.23
2023-10-09T01:59:55.651Z,0.15
2023-10-09T02:02:32.136Z,0.88
2023-10-09T02:05:18.213Z,0.73
2023-10-09T02:08:05.125Z,0.40
2023-10-09T02:10:31.616Z,0.95
2023-10-09T02:13:07.513Z,1.80
2023-10-09T02:15:46.441Z,1.35
2023-10-09T02:18:46.595Z,1.67
2023-10-09T02:23:47.134Z,0.35
2023-10-09T02:26:27.613Z,1.55
2023-10-09T02:29:06.550Z,1.17
2023-10-09T02:34:17.087Z,0.60
2023-10-09T02:36:50.528Z,0.55
2023-10-09T02:39:24.920Z,1.05
2023-10-09T02:41:56.156Z,1.73
2023-10-09T02:44:32.348Z,1.35
2023-10-09T02:46:59.908Z,1.58
2023-10-09T02:49:29.496Z,1.20
2023-10-09T02:51:58.553Z,1.55
2023-10-09T02:54:24.990Z,1.52
2023-10-09T02:56:57.474Z,0.25
2023-10-09T03:01:56.477Z,0.40
2023-10-09T03:04:25.492Z,0.63
2023-10-09T03:06:52.383Z,0.80
2023-10-09T03:09:47.860Z,2.38
2023-10-09T03:12:14.525Z,0.65
2023-10-09T03:14:42.436Z,1.00
2023-10-09T03:17:12.655Z,0.57
2023-10-09T03:19:39.792Z,1.42
2023-10-09T03:22:11.112Z,1.48
2023-10-09T03:24:38.799Z,0.73
2023-10-09T03:27:05.379Z,1.02
2023-10-09T03:29:31.838Z,0.32
2023-10-09T03:31:58.288Z,1.70
2023-10-09T03:34:25.069Z,1.35
2023-10-09T03:37:05.354Z,0.50
2023-10-09T03:39:53.384Z,0.28
2023-10-09T03:42:20.763Z,0.75
2023-10-09T03:44:53.230Z,0.60
2023-10-09T03:47:23.878Z,0.68
2023-10-09T03:49:52.740Z,0.68
2023-10-09T03:52:20.295Z,1.23
2023-10-09T03:54:50.842Z,0.88
2023-10-09T03:57:20.727Z,1.45
2023-10-09T03:59:52.845Z,1.25
2023-10-09T04:02:19.974Z,1.85
2023-10-09T04:04:48.665Z,1.58
2023-10-09T04:07:17.874Z,0.40
2023-10-09T04:09:48.592Z,1.27
2023-10-09T04:12:21.332Z,1.13
2023-10-09T04:14:58.772Z,0.47
2023-10-09T04:17:25.690Z,0.45
2023-10-09T04:20:10.631Z,0.93
2023-10-09T04:22:43.560Z,1.63
2023-10-09T04:25:15.688Z,0.68
2023-10-09T04:27:42.526Z,0.50
2023-10-09T04:30:19.473Z,1.30
2023-10-09T04:32:46.717Z,0.98
2023-10-09T04:35:27.376Z,0.82
2023-10-09T04:38:01.035Z,1.80
2023-10-09T04:40:54.356Z,1.25
2023-10-09T04:43:21.746Z,0.82
2023-10-09T04:46:08.539Z,0.38
2023-10-09T04:48:42.377Z,1.02
2023-10-09T04:51:35.935Z,0.85
2023-10-09T04:54:14.638Z,1.85
2023-10-09T04:56:53.785Z,1.25
2023-10-09T04:59:21.052Z,0.20
2023-10-09T05:01:59.003Z,0.70
2023-10-09T05:04:38.732Z,1.10
2023-10-09T05:07:24.109Z,0.68
2023-10-09T05:09:57.463Z,1.83
2023-10-09T05:12:28.165Z,0.77
2023-10-09T05:15:10.292Z,1.23
2023-10-09T05:17:42.141Z,1.42
2023-10-09T05:20:26.951Z,0.65
2023-10-09T05:22:59.702Z,1.17
2023-10-09T05:25:45.633Z,0.68
2023-10-09T05:28:32.653Z,0.40
2023-10-09T05:31:09.300Z,0.38
2023-10-09T05:33:39.704Z,1.08
2023-10-09T05:36:25.837Z,0.60
2023-10-09T05:39:19.442Z,1.08
2023-10-09T05:41:51.634Z,0.80
2023-10-09T05:44:40.022Z,0.70
2023-10-09T05:47:30.592Z,1.20
2023-10-09T05:50:09.120Z,1.63
2023-10-09T05:52:41.455Z,0.50
2023-10-09T05:55:35.093Z,0.85
2023-10-09T05:58:04.394Z,0.55
2023-10-09T06:00:50.006Z,0.80
2023-10-09T06:03:22.660Z,1.13
2023-10-09T06:05:57.589Z,1.55
2023-10-09T06:08:28.074Z,0.98
2023-10-09T06:11:13.348Z,0.65
2023-10-09T06:13:42.202Z,0.82
2023-10-09T06:16:21.469Z,1.10
2023-10-09T06:19:09.565Z,3.83
2023-10-09T06:22:08.336Z,0.65
2023-10-09T06:24:42.424Z,1.02
2023-10-09T06:27:36.329Z,0.70
2023-10-09T06:30:14.707Z,1.17
2023-10-09T06:33:21.891Z,0.93
2023-10-09T06:35:57.698Z,0.85
2023-10-09T06:38:24.875Z,1.17
2023-10-09T06:41:17.919Z,1.23
2023-10-09T06:43:48.755Z,2.35
2023-10-09T06:46:27.422Z,1.80
2023-10-09T06:48:57.442Z,1.45
2023-10-09T06:51:27.773Z,0.82
2023-10-09T06:53:55.545Z,1.50
2023-10-09T06:56:33.031Z,1.08
2023-10-09T06:59:05.095Z,1.08
2023-10-09T07:01:45.292Z,1.05
2023-10-09T07:04:20.794Z,1.60
2023-10-09T07:06:52.151Z,1.77
2023-10-09T07:09:22.101Z,1.10
2023-10-09T07:11:53.418Z,2.65
2023-10-09T07:14:53.564Z,1.30
2023-10-09T07:17:29.138Z,2.22
2023-10-09T07:19:55.651Z,2.47
2023-10-09T07:22:23.983Z,3.85
2023-10-09T07:24:58.050Z,2.65
2023-10-09T07:27:44.203Z,3.58
2023-10-09T07:30:31.404Z,3.08
2023-10-09T07:33:13.124Z,3.53
2023-10-09T07:35:43.906Z,1.88
2023-10-09T07:38:20.344Z,1.58
2023-10-09T07:41:17.515Z,2.40
2023-10-09T07:43:43.934Z,2.45
2023-10-09T07:46:34.847Z,4.57
2023-10-09T07:49:10.420Z,2.80
2023-10-09T07:51:38.432Z,3.58
2023-10-09T07:54:15.609Z,2.38
2023-10-09T07:56:47.592Z,2.05
2023-10-09T07:59:19.380Z,3.20
2023-10-09T08:01:54.184Z,3.63
2023-10-09T08:04:41.227Z,2.58
2023-10-09T08:08:08.674Z,1.98
2023-10-09T08:10:14.847Z,4.78
2023-10-09T08:12:50.861Z,1.95
2023-10-09T08:15:22.554Z,6.10
2023-10-09T08:18:14.873Z,3.00
2023-10-09T08:20:59.600Z,4.35
2023-10-09T08:23:49.256Z,4.50
2023-10-09T08:26:48.353Z,3.58
2023-10-09T08:29:18.954Z,4.20
2023-10-09T08:31:48.461Z,3.80
2023-10-09T08:36:57.848Z,3.95
2023-10-09T08:39:27.724Z,3.33
2023-10-09T08:42:03.198Z,2.97
2023-10-09T08:44:33.025Z,5.20
2023-10-09T08:47:00.595Z,2.88
2023-10-09T08:49:28.979Z,4.78
2023-10-09T08:52:04.180Z,1.98
2023-10-09T08:54:34.678Z,4.72
2023-10-09T08:57:02.252Z,3.63
2023-10-09T08:59:28.705Z,4.05
2023-10-09T09:01:59.429Z,3.90
2023-10-09T09:04:36.523Z,3.72
2023-10-09T09:07:03.310Z,4.65
2023-10-09T09:09:33.084Z,4.97
2023-10-09T09:12:01.106Z,3.50
2023-10-09T09:15:27.934Z,4.28
2023-10-09T09:18:11.854Z,5.22
2023-10-09T09:20:41.952Z,3.63
2023-10-09T09:23:13.558Z,4.25
2023-10-09T09:25:45.916Z,3.53
2023-10-09T09:28:27.692Z,3.55
2023-10-09T09:30:55.530Z,5.38
2023-10-09T09:33:41.837Z,4.28
2023-10-09T09:36:08.691Z,4.38
2023-10-09T09:38:52.484Z,3.60
2023-10-09T09:41:25.942Z,3.55
2023-10-09T09:46:44.766Z,3.85
2023-10-09T09:49:18.239Z,6.32
2023-10-09T09:51:47.643Z,5.55
2023-10-09T09:54:17.240Z,3.20
2023-10-09T09:56:52.248Z,4.25
2023-10-09T09:59:28.459Z,3.85
2023-10-09T10:01:59.536Z,4.28
2023-10-09T10:04:31.322Z,5.88
2023-10-09T10:07:10.109Z,4.95
2023-10-09T10:09:46.878Z,5.80
2023-10-09T10:12:15.523Z,4.60
2023-10-09T10:15:00.416Z,3.85
2023-10-09T10:17:30.359Z,4.03
2023-10-09T10:20:18.257Z,5.25
2023-10-09T10:22:52.014Z,3.67
2023-10-09T10:25:34.376Z,4.88
2023-10-09T10:28:17.044Z,4.15
2023-10-09T10:30:53.779Z,4.25
2023-10-09T10:33:23.764Z,4.50
2023-10-09T10:35:53.120Z,5.03
2023-10-09T10:38:38.125Z,4.20
2023-10-09T10:41:20.317Z,3.05
2023-10-09T10:43:49.097Z,3.42
2023-10-09T10:46:16.653Z,1.73
2023-10-09T10:48:48.459Z,5.28
2023-10-09T10:51:15.940Z,5.28
2023-10-09T10:53:54.128Z,4.30
2023-10-09T10:59:06.477Z,4.03
2023-10-09T11:01:56.805Z,2.78
2023-10-09T11:04:44.514Z,3.95
2023-10-09T11:07:18.350Z,2.78
2023-10-09T11:10:01.283Z,3.05
2023-10-09T11:12:40.712Z,3.05
2023-10-09T11:15:09.926Z,2.60
2023-10-09T11:17:37.168Z,3.60
2023-10-09T11:20:33.289Z,1.65
2023-10-09T11:23:09.108Z,2.45
2023-10-09T11:25:40.291Z,2.50
2023-10-09T11:28:32.395Z,2.53
2023-10-09T11:31:17.304Z,2.13
2023-10-09T11:33:54.392Z,1.75
2023-10-09T11:36:33.820Z,0.65
2023-10-09T11:39:14.975Z,1.65
2023-10-09T11:41:45.378Z,1.98
2023-10-09T11:44:35.220Z,1.23
2023-10-09T11:47:21.029Z,1.58
2023-10-09T11:50:14.546Z,1.00
2023-10-09T11:53:10.251Z,0.82
2023-10-09T11:55:54.333Z,1.05
2023-10-09T11:58:25.168Z,1.30
2023-10-09T12:01:06.056Z,1.13
2023-10-09T12:03:33.752Z,1.65
2023-10-09T12:06:13.225Z,1.10
2023-10-09T12:08:43.359Z,0.65
2023-10-09T12:11:11.038Z,0.82
2023-10-09T12:16:53.612Z,0.90
2023-10-09T12:19:20.243Z,0.52
2023-10-09T12:21:46.660Z,0.40
2023-10-09T12:24:13.435Z,0.65
2023-10-09T12:26:45.112Z,1.38
2023-10-09T12:29:12.675Z,0.68
2023-10-09T12:31:39.712Z,0.80
2023-10-09T12:34:08.803Z,0.93
2023-10-09T12:36:40.187Z,0.95
2023-10-09T12:39:07.211Z,0.82
2023-10-09T12:41:36.522Z,0.85
2023-10-09T12:44:03.488Z,1.40
2023-10-09T12:46:33.985Z,1.02
2023-10-09T12:49:02.261Z,0.68
2023-10-09T12:51:31.483Z,1.08
2023-10-09T12:54:18.669Z,1.20
2023-10-09T12:56:50.265Z,0.73
2023-10-09T12:59:17.740Z,0.85
2023-10-09T13:01:44.917Z,0.90
2023-10-09T13:04:23.295Z,0.70
2023-10-09T13:09:44.126Z,1.00
2023-10-09T13:12:19.802Z,0.73
2023-10-09T13:14:48.388Z,1.30
2023-10-09T13:17:17.835Z,1.50
2023-10-09T13:19:45.562Z,1.48
2023-10-09T13:22:15.268Z,1.02
2023-10-09T13:24:42.842Z,1.00
2023-10-09T13:27:12.446Z,1.45
2023-10-09T13:29:42.457Z,1.08
2023-10-09T13:35:07.716Z,1.17
2023-10-09T13:37:37.896Z,0.98
2023-10-09T13:40:13.289Z,1.02
2023-10-09T13:42:40.213Z,0.95
2023-10-09T13:48:12.691Z,1.08
2023-10-09T13:50:44.127Z,2.10
2023-10-09T13:53:16.364Z,1.25
2023-10-09T13:55:48.515Z,1.05
2023-10-09T13:58:21.806Z,1.25
2023-10-09T14:00:50.919Z,1.13
2023-10-09T14:03:20.972Z,1.27
2023-10-09T14:05:55.501Z,1.35
2023-10-09T14:08:24.769Z,1.52
2023-10-09T14:10:55.632Z,0.93
2023-10-09T14:13:29.366Z,1.75
2023-10-09T14:16:00.778Z,1.23
2023-10-09T14:18:30.976Z,1.63
2023-10-09T14:20:58.138Z,1.50
2023-10-09T14:23:25.633Z,1.30
2023-10-09T14:25:57.392Z,1.30
2023-10-09T14:28:29.343Z,2.00
2023-10-09T14:31:00.704Z,1.65
2023-10-09T14:33:37.138Z,1.50
2023-10-09T14:36:06.937Z,0.98
2023-10-09T14:38:34.187Z,1.15
2023-10-09T14:41:01.273Z,1.08
2023-10-09T14:43:34.997Z,0.63
2023-10-09T14:46:01.843Z,0.93
2023-10-09T14:48:29.858Z,1.33
2023-10-09T14:51:05.581Z,0.98
2023-10-09T14:53:32.133Z,1.23
2023-10-09T14:56:02.741Z,1.17
2023-10-09T14:58:31.555Z,1.85
2023-10-09T15:03:38.820Z,0.93
2023-10-09T15:06:09.462Z,0.95
2023-10-09T15:08:36.428Z,0.43
2023-10-09T15:11:21.850Z,1.45
2023-10-09T15:13:48.673Z,0.60
2023-10-09T15:16:15.313Z,0.70
2023-10-09T15:18:41.777Z,0.65
2023-10-09T15:23:59.419Z,0.73
2023-10-09T15:26:26.228Z,1.38
2023-10-09T15:28:53.054Z,0.60
2023-10-09T15:31:22.676Z,0.63
2023-10-09T15:33:52.745Z,0.65
2023-10-09T15:36:21.436Z,1.13
2023-10-09T15:38:50.986Z,0.90
2023-10-09T15:41:19.153Z,0.68
2023-10-09T15:43:46.534Z,0.60
2023-10-09T15:46:16.895Z,1.48
2023-10-09T15:48:44.300Z,1.33
2023-10-09T15:51:15.197Z,0.70
2023-10-09T15:53:45.566Z,1.15
2023-10-09T15:56:13.804Z,0.30
2023-10-09T15:58:43.948Z,1.75
2023-10-09T16:01:14.152Z,0.70
2023-10-09T16:03:43.055Z,0.40
2023-10-09T16:06:12.775Z,1.48
2023-10-09T16:08:40.872Z,0.55
2023-10-09T16:11:08.553Z,0.65
2023-10-09T16:13:36.280Z,0.75
2023-10-09T16:16:03.487Z,0.43
2023-10-09T16:18:29.929Z,0.55
2023-10-09T16:20:56.804Z,0.63
2023-10-09T16:23:23.622Z,0.57
2023-10-09T16:25:51.038Z,0.70
2023-10-09T16:28:17.603Z,1.38
2023-10-09T16:30:44.549Z,0.57
2023-10-09T16:33:11.041Z,1.00
2023-10-09T16:35:42.670Z,0.70
2023-10-09T16:38:13.335Z,1.02
2023-10-09T16:40:41.168Z,0.98
2023-10-09T16:43:14.526Z,0.70
2023-10-09T16:45:44.612Z,1.15
2023-10-09T16:48:11.437Z,1.00
2023-10-09T16:50:37.987Z,1.88
2023-10-09T16:53:05.044Z,1.95
2023-10-09T16:55:32.394Z,1.02
2023-10-09T16:57:58.896Z,1.13
2023-10-09T17:00:38.038Z,0.77
2023-10-09T17:03:07.843Z,0.93
2023-10-09T17:05:39.073Z,0.85
2023-10-09T17:08:10.870Z,1.35
2023-10-09T17:13:09.303Z,1.50
2023-10-09T17:15:36.673Z,0.75
2023-10-09T17:18:05.049Z,1.38
2023-10-09T17:20:31.530Z,1.13
2023-10-09T17:23:01.478Z,0.75
2023-10-09T17:25:28.889Z,1.45
2023-10-09T17:27:55.546Z,0.52
2023-10-09T17:30:22.027Z,0.95
2023-10-09T17:32:49.508Z,0.85
2023-10-09T17:35:17.423Z,0.50
2023-10-09T17:37:46.669Z,1.02
2023-10-09T17:40:19.250Z,1.10
2023-10-09T17:42:46.126Z,0.63
2023-10-09T17:45:15.751Z,0.68
2023-10-09T17:47:42.946Z,0.63
2023-10-09T17:50:12.658Z,1.13
2023-10-09T17:52:40.361Z,2.08
2023-10-09T17:55:07.858Z,1.75
2023-10-09T17:57:35.371Z,1.67
2023-10-09T18:00:05.713Z,0.85
2023-10-09T18:02:32.343Z,2.13
2023-10-09T18:04:59.450Z,2.90
2023-10-09T18:07:27.945Z,2.03
2023-10-09T18:09:54.704Z,2.33
2023-10-09T18:12:23.320Z,2.80
2023-10-09T18:14:56.314Z,1.60
2023-10-09T18:17:27.766Z,2.53
2023-10-09T18:19:54.434Z,2.72
2023-10-09T18:22:21.032Z,1.48
2023-10-09T18:24:47.489Z,1.65
2023-10-09T18:27:30.019Z,2.28
2023-10-09T18:29:59.282Z,2.15
2023-10-09T18:32:26.073Z,2.38
2023-10-09T18:34:52.909Z,3.53
2023-10-09T18:37:20.543Z,2.35
2023-10-09T18:39:47.621Z,1.95
2023-10-09T18:42:14.801Z,2.78
2023-10-09T18:44:43.994Z,2.42
2023-10-09T18:47:16.196Z,2.13
2023-10-09T18:49:42.827Z,3.00
2023-10-09T18:52:11.573Z,2.30
2023-10-09T18:54:38.180Z,2.22
2023-10-09T18:57:04.739Z,1.90
2023-10-09T18:59:31.753Z,2.70
2023-10-09T19:01:59.043Z,3.42
2023-10-09T19:04:25.603Z,4.25
2023-10-09T19:06:52.279Z,2.85
2023-10-09T19:09:21.809Z,6.15
2023-10-09T19:11:48.648Z,4.07
2023-10-09T19:14:21.341Z,3.58
2023-10-09T19:16:47.852Z,3.03
2023-10-09T19:19:14.805Z,5.50
2023-10-09T19:21:48.139Z,1.45
2023-10-09T19:24:14.803Z,2.30
2023-10-09T19:26:43.220Z,3.15
2023-10-09T19:29:12.044Z,6.93
2023-10-09T19:31:39.509Z,3.83
2023-10-09T19:34:08.651Z,5.05
2023-10-09T19:36:38.507Z,4.43
2023-10-09T19:39:05.024Z,4.22
2023-10-09T19:41:34.454Z,6.15
2023-10-09T19:44:05.270Z,3.20
2023-10-09T19:46:34.407Z,4.47
2023-10-09T19:49:00.934Z,5.07
2023-10-09T19:51:29.209Z,3.53
2023-10-09T19:53:56.275Z,3.38
2023-10-09T19:56:23.514Z,2.30
2023-10-09T19:58:51.888Z,3.63
2023-10-09T20:01:19.779Z,4.40
2023-10-09T20:03:46.722Z,3.72
2023-10-09T20:06:16.445Z,4.25
2023-10-09T20:08:45.686Z,3.83
2023-10-09T20:11:13.779Z,5.60
2023-10-09T20:13:42.930Z,2.85
2023-10-09T20:16:10.089Z,4.65
2023-10-09T20:18:38.222Z,2.35
2023-10-09T20:21:12.220Z,6.50
2023-10-09T20:23:42.906Z,5.05
2023-10-09T20:26:12.827Z,5.95
2023-10-09T20:28:49.122Z,4.40
2023-10-09T20:31:15.829Z,4.22
2023-10-09T20:33:43.592Z,3.90
2023-10-09T20:36:16.608Z,3.65
2023-10-09T20:38:43.647Z,4.45
2023-10-09T20:41:10.425Z,4.78
2023-10-09T20:43:37.960Z,8.98
2023-10-09T20:46:05.529Z,5.85
2023-10-09T20:48:32.878Z,5.55
2023-10-09T20:51:00.023Z,4.38
2023-10-09T20:53:27.592Z,5.38
2023-10-09T20:55:56.252Z,4.70
2023-10-09T20:58:25.901Z,4.10
2023-10-09T21:00:53.394Z,4.18
2023-10-09T21:03:20.168Z,3.85
2023-10-09T21:05:46.711Z,5.03
2023-10-09T21:08:14.275Z,4.78
2023-10-09T21:10:42.584Z,7.88
2023-10-09T21:13:09.555Z,8.57
2023-10-09T21:15:41.799Z,5.75
2023-10-09T21:20:39.593Z,4.60
2023-10-09T21:23:06.839Z,3.78
2023-10-09T21:25:34.885Z,5.30
2023-10-09T21:28:01.482Z,3.42
2023-10-09T21:30:28.010Z,2.97
2023-10-09T21:32:55.646Z,3.20
2023-10-09T21:35:28.592Z,3.13
2023-10-09T21:37:59.531Z,2.80
2023-10-09T21:40:30.870Z,1.80
2023-10-09T21:43:10.901Z,4.10
2023-10-09T21:45:39.282Z,2.65
2023-10-09T21:48:09.740Z,2.35
2023-10-09T21:50:39.542Z,2.25
2023-10-09T21:53:07.047Z,2.20
2023-10-09T21:55:35.182Z,4.00
2023-10-09T21:58:03.092Z,1.98
2023-10-09T22:00:37.327Z,2.72
2023-10-09T22:03:09.570Z,1.48
2023-10-09T22:05:42.892Z,1.95
2023-10-09T22:08:15.697Z,1.15
2023-10-09T22:10:46.582Z,3.05
2023-10-09T22:13:13.062Z,1.90
2023-10-09T22:15:39.736Z,3.92
2023-10-09T22:18:12.650Z,1.15
2023-10-09T22:23:46.543Z,1.15
2023-10-09T22:26:15.797Z,2.85
2023-10-09T22:28:42.986Z,3.67
2023-10-09T22:31:11.915Z,3.85
2023-10-09T22:33:52.334Z,2.80
2023-10-09T22:36:46.854Z,2.70
2023-10-09T22:39:22.630Z,4.93
2023-10-09T22:41:54.931Z,5.18
2023-10-09T22:44:21.557Z,2.30
2023-10-09T22:46:48.435Z,2.20
2023-10-09T22:49:19.213Z,2.70
2023-10-09T22:51:52.243Z,2.95
2023-10-09T22:54:24.545Z,2.60
2023-10-09T22:59:27.736Z,3.15
2023-10-09T23:02:02.480Z,2.45
2023-10-09T23:04:38.325Z,3.85
2023-10-09T23:07:17.420Z,1.95
2023-10-09T23:09:52.660Z,2.58
2023-10-09T23:12:23.788Z,1.80
2023-10-09T23:14:52.168Z,2.30
2023-10-09T23:17:19.679Z,1.88
2023-10-09T23:19:57.775Z,2.70
2023-10-09T23:22:46.539Z,3.67
2023-10-09T23:25:18.779Z,2.10
2023-10-09T23:27:45.235Z,2.92
2023-10-09T23:30:25.083Z,3.03
2023-10-09T23:33:11.524Z,1.20
2023-10-09T23:35:51.491Z,3.60
2023-10-09T23:38:35.819Z,2.53
2023-10-09T23:41:13.129Z,2.53
2023-10-09T23:43:45.822Z,1.77
2023-10-09T23:46:18.219Z,3.13
2023-10-09T23:48:53.930Z,2.05
2023-10-09T23:51:20.874Z,1.42
2023-10-09T23:53:53.795Z,2.00
2023-10-09T23:56:40.763Z,1.55
2023-10-09T23:59:13.743Z,1.42
